PWSweather.com
Personal Weather Stations
Station Observations
KOHAVON11
Long Road Station, Avon, OH 44011

Long Road StationAvon, OH 44011

Lat: 41.437, Lon: -82.0477

Elevation: 686

Station Type: Davis Vantage Pro2

http://www.avon-weather.com

High Low Average
Temperature 57.7°F14.3°C 19.7°F-6.8°C 36.8°F2.7°C
Dew Point 54.4°F12.4°C 16.3°F-8.7°C 33.6°F0.9°C
Winds 26.0 mph 41.8 kmh Calm Calm 7.0 mph SSE11.3 kmh SSE
Wind Gusts 30.0 mph48.3 kmh -- 17.0 mph27.4 kmh
Humidity 89% 86% 88%
Pressure 30.06 in1017.9 mb 29.62 in1003.0 mb -
Precipitation 0.83 in21.1 mm - -
Hour Temp Dew Point Humidity Winds Wind Gusts Pressure Precip Precip Rate Daily Precip Total
12:02 AM 57.2°F14.0°C 54.0°F12.2°C 89% Calm Calm 4.0 mph6.4 kmh 29.76 in1007.8 mb 0.00 in0.0 mm 0.00 in0.0 mm 0.25 in6.4 mm
12:07 AM 57.1°F13.9°C 53.9°F12.2°C 89% Calm Calm 13.0 mph20.9 kmh 29.76 in1007.8 mb 0.00 in0.0 mm 0.00 in0.0 mm 0.25 in6.4 mm
12:12 AM 57.0°F13.9°C 53.8°F12.1°C 89% Calm Calm 3.0 mph4.8 kmh 29.76 in1007.8 mb 0.00 in0.0 mm 0.00 in0.0 mm 0.25 in6.4 mm
12:17 AM 57.0°F13.9°C 53.8°F12.1°C 89% 3.0 mph SSE4.8 kmh SSE 11.0 mph17.7 kmh 29.76 in1007.8 mb 0.00 in0.0 mm 0.00 in0.0 mm 0.25 in6.4 mm
12:22 AM 57.0°F13.9°C 53.8°F12.1°C 89% 11.0 mph S17.7 kmh S 11.0 mph17.7 kmh 29.76 in1007.8 mb 0.00 in0.0 mm 0.00 in0.0 mm 0.25 in6.4 mm
12:27 AM 57.1°F13.9°C 53.9°F12.2°C 89% 7.0 mph SSW11.3 kmh SSW 13.0 mph20.9 kmh 29.76 in1007.8 mb 0.00 in0.0 mm 0.00 in0.0 mm 0.25 in6.4 mm
12:32 AM 57.1°F13.9°C 53.9°F12.2°C 89% 8.0 mph S12.9 kmh S 13.0 mph20.9 kmh 29.76 in1007.8 mb 0.00 in0.0 mm 0.00 in0.0 mm 0.25 in6.4 mm
12:37 AM 57.2°F14.0°C 54.0°F12.2°C 89% 15.0 mph S24.1 kmh S 15.0 mph24.1 kmh 29.76 in1007.8 mb 0.00 in0.0 mm 0.00 in0.0 mm 0.25 in6.4 mm
12:42 AM 57.2°F14.0°C 54.0°F12.2°C 89% 6.0 mph S9.7 kmh S 15.0 mph24.1 kmh 29.76 in1007.8 mb 0.00 in0.0 mm 0.00 in0.0 mm 0.25 in6.4 mm
12:47 AM 57.2°F14.0°C 54.0°F12.2°C 89% 6.0 mph S9.7 kmh S 15.0 mph24.1 kmh 29.76 in1007.8 mb 0.00 in0.0 mm 0.00 in0.0 mm 0.25 in6.4 mm
12:52 AM 57.4°F14.1°C 54.1°F12.3°C 89% 5.0 mph SSE8.0 kmh SSE 15.0 mph24.1 kmh 29.75 in1007.5 mb 0.00 in0.0 mm 0.00 in0.0 mm 0.25 in6.4 mm
12:57 AM 57.5°F14.2°C 54.2°F12.3°C 89% 7.0 mph S11.3 kmh S 15.0 mph24.1 kmh 29.75 in1007.5 mb 0.00 in0.0 mm 0.00 in0.0 mm 0.25 in6.4 mm
01:02 AM 57.6°F14.2°C 54.3°F12.4°C 89% 8.0 mph SSE12.9 kmh SSE 16.0 mph25.7 kmh 29.75 in1007.5 mb 0.00 in0.0 mm 0.00 in0.0 mm 0.00 in0.0 mm
01:07 AM 57.6°F14.2°C 54.3°F12.4°C 89% 11.0 mph SSE17.7 kmh SSE 16.0 mph25.7 kmh 29.74 in1007.1 mb 0.00 in0.0 mm 0.00 in0.0 mm 0.00 in0.0 mm
01:12 AM 57.6°F14.2°C 54.3°F12.4°C 89% 8.0 mph SSE12.9 kmh SSE 16.0 mph25.7 kmh 29.74 in1007.1 mb 0.00 in0.0 mm 0.00 in0.0 mm 0.00 in0.0 mm
01:17 AM 57.7°F14.3°C 54.4°F12.4°C 89% 7.0 mph SSE11.3 kmh SSE 17.0 mph27.4 kmh 29.74 in1007.1 mb 0.00 in0.0 mm 0.00 in0.0 mm 0.00 in0.0 mm
01:22 AM 57.7°F14.3°C 54.4°F12.4°C 89% 9.0 mph S14.5 kmh S 17.0 mph27.4 kmh 29.73 in1006.8 mb 0.00 in0.0 mm 0.00 in0.0 mm 0.00 in0.0 mm
01:27 AM 57.6°F14.2°C 54.3°F12.4°C 89% 7.0 mph SSE11.3 kmh SSE 17.0 mph27.4 kmh 29.73 in1006.8 mb 0.00 in0.0 mm 0.00 in0.0 mm 0.00 in0.0 mm
01:32 AM 57.5°F14.2°C 53.9°F12.2°C 88% 9.0 mph SSE14.5 kmh SSE 17.0 mph27.4 kmh 29.73 in1006.8 mb 0.00 in0.0 mm 0.00 in0.0 mm 0.00 in0.0 mm
01:37 AM 57.4°F14.1°C 54.1°F12.3°C 89% 10.0 mph S16.1 kmh S 15.0 mph24.1 kmh 29.73 in1006.8 mb 0.00 in0.0 mm 0.00 in0.0 mm 0.00 in0.0 mm
01:42 AM 57.4°F14.1°C 54.1°F12.3°C 89% 6.0 mph SSE9.7 kmh SSE 15.0 mph24.1 kmh 29.73 in1006.8 mb 0.00 in0.0 mm 0.00 in0.0 mm 0.00 in0.0 mm
01:47 AM 57.3°F14.1°C 54.1°F12.3°C 89% 7.0 mph SSE11.3 kmh SSE 10.0 mph16.1 kmh 29.72 in1006.4 mb 0.00 in0.0 mm 0.00 in0.0 mm 0.00 in0.0 mm
01:52 AM 57.3°F14.1°C 54.1°F12.3°C 89% 8.0 mph SSE12.9 kmh SSE 11.0 mph17.7 kmh 29.72 in1006.4 mb 0.00 in0.0 mm 0.00 in0.0 mm 0.00 in0.0 mm
01:57 AM 57.2°F14.0°C 54.0°F12.2°C 89% 8.0 mph S12.9 kmh S 11.0 mph17.7 kmh 29.71 in1006.1 mb 0.00 in0.0 mm 0.00 in0.0 mm 0.00 in0.0 mm
02:02 AM 57.2°F14.0°C 54.0°F12.2°C 89% 8.0 mph SSE12.9 kmh SSE 11.0 mph17.7 kmh 29.71 in1006.1 mb 0.00 in0.0 mm 0.00 in0.0 mm 0.00 in0.0 mm
02:07 AM 57.1°F13.9°C 53.9°F12.2°C 89% 8.0 mph SE12.9 kmh SE 12.0 mph19.3 kmh 29.71 in1006.1 mb 0.00 in0.0 mm 0.00 in0.0 mm 0.00 in0.0 mm
02:12 AM 57.1°F13.9°C 53.9°F12.2°C 89% 5.0 mph SE8.0 kmh SE 12.0 mph19.3 kmh 29.71 in1006.1 mb 0.00 in0.0 mm 0.00 in0.0 mm 0.00 in0.0 mm
02:17 AM 57.1°F13.9°C 53.9°F12.2°C 89% 9.0 mph SSE14.5 kmh SSE 12.0 mph19.3 kmh 29.71 in1006.1 mb 0.00 in0.0 mm 0.00 in0.0 mm 0.00 in0.0 mm
02:22 AM 57.1°F13.9°C 53.9°F12.2°C 89% 6.0 mph S9.7 kmh S 12.0 mph19.3 kmh 29.71 in1006.1 mb 0.00 in0.0 mm 0.00 in0.0 mm 0.00 in0.0 mm
02:27 AM 57.0°F13.9°C 53.8°F12.1°C 89% 5.0 mph SSE8.0 kmh SSE 11.0 mph17.7 kmh 29.70 in1005.8 mb 0.00 in0.0 mm 0.00 in0.0 mm 0.00 in0.0 mm
02:32 AM 57.0°F13.9°C 53.8°F12.1°C 89% 4.0 mph S6.4 kmh S 11.0 mph17.7 kmh 29.70 in1005.8 mb 0.00 in0.0 mm 0.00 in0.0 mm 0.00 in0.0 mm
02:37 AM 56.9°F13.8°C 53.7°F12.1°C 89% 7.0 mph S11.3 kmh S 12.0 mph19.3 kmh 29.69 in1005.4 mb 0.00 in0.0 mm 0.00 in0.0 mm 0.00 in0.0 mm
02:42 AM 56.8°F13.8°C 53.6°F12.0°C 89% 7.0 mph S11.3 kmh S 12.0 mph19.3 kmh 29.69 in1005.4 mb 0.00 in0.0 mm 0.00 in0.0 mm 0.00 in0.0 mm
02:47 AM 56.8°F13.8°C 53.6°F12.0°C 89% 9.0 mph S14.5 kmh S 13.0 mph20.9 kmh 29.69 in1005.4 mb 0.00 in0.0 mm 0.00 in0.0 mm 0.00 in0.0 mm
02:52 AM 56.7°F13.7°C 53.5°F11.9°C 89% 6.0 mph S9.7 kmh S 13.0 mph20.9 kmh 29.68 in1005.1 mb 0.00 in0.0 mm 0.00 in0.0 mm 0.00 in0.0 mm
02:57 AM 56.5°F13.6°C 53.3°F11.8°C 89% 9.0 mph SSE14.5 kmh SSE 13.0 mph20.9 kmh 29.68 in1005.1 mb 0.00 in0.0 mm 0.00 in0.0 mm 0.00 in0.0 mm
03:02 AM 56.4°F13.6°C 53.2°F11.8°C 89% 6.0 mph SW9.7 kmh SW 13.0 mph20.9 kmh 29.68 in1005.1 mb 0.00 in0.0 mm 0.00 in0.0 mm 0.00 in0.0 mm
03:07 AM 56.4°F13.6°C 53.2°F11.8°C 89% 5.0 mph S8.0 kmh S 11.0 mph17.7 kmh 29.68 in1005.1 mb 0.00 in0.0 mm 0.00 in0.0 mm 0.00 in0.0 mm
03:12 AM 56.3°F13.5°C 53.1°F11.7°C 89% 11.0 mph S17.7 kmh S 12.0 mph19.3 kmh 29.68 in1005.1 mb 0.00 in0.0 mm 0.00 in0.0 mm 0.00 in0.0 mm
03:17 AM 56.2°F13.4°C 53.0°F11.7°C 89% 8.0 mph S12.9 kmh S 12.0 mph19.3 kmh 29.68 in1005.1 mb 0.00 in0.0 mm 0.00 in0.0 mm 0.00 in0.0 mm
03:22 AM 56.2°F13.4°C 53.0°F11.7°C 89% 7.0 mph SSE11.3 kmh SSE 13.0 mph20.9 kmh 29.68 in1005.1 mb 0.00 in0.0 mm 0.00 in0.0 mm 0.00 in0.0 mm
03:27 AM 56.2°F13.4°C 53.0°F11.7°C 89% 5.0 mph S8.0 kmh S 13.0 mph20.9 kmh 29.68 in1005.1 mb 0.00 in0.0 mm 0.00 in0.0 mm 0.00 in0.0 mm
03:32 AM 56.3°F13.5°C 53.1°F11.7°C 89% Calm Calm 13.0 mph20.9 kmh 29.68 in1005.1 mb 0.00 in0.0 mm 0.00 in0.0 mm 0.00 in0.0 mm
03:37 AM 56.3°F13.5°C 53.1°F11.7°C 89% Calm Calm 13.0 mph20.9 kmh 29.67 in1004.7 mb 0.00 in0.0 mm 0.00 in0.0 mm 0.00 in0.0 mm
03:42 AM 56.3°F13.5°C 53.1°F11.7°C 89% Calm Calm 5.0 mph8.0 kmh 29.67 in1004.7 mb 0.00 in0.0 mm 0.00 in0.0 mm 0.00 in0.0 mm
03:47 AM 56.3°F13.5°C 53.1°F11.7°C 89% Calm Calm 7.0 mph11.3 kmh 29.66 in1004.4 mb 0.00 in0.0 mm 0.00 in0.0 mm 0.00 in0.0 mm
03:52 AM 56.3°F13.5°C 53.1°F11.7°C 89% 2.0 mph S3.2 kmh S 4.0 mph6.4 kmh 29.66 in1004.4 mb 0.00 in0.0 mm 0.00 in0.0 mm 0.00 in0.0 mm
03:57 AM 56.2°F13.4°C 53.0°F11.7°C 89% 1.0 mph S1.6 kmh S 4.0 mph6.4 kmh 29.66 in1004.4 mb 0.00 in0.0 mm 0.00 in0.0 mm 0.00 in0.0 mm
04:02 AM 56.2°F13.4°C 53.0°F11.7°C 89% Calm Calm 5.0 mph8.0 kmh 29.66 in1004.4 mb 0.00 in0.0 mm 0.00 in0.0 mm 0.00 in0.0 mm
04:07 AM 56.3°F13.5°C 53.1°F11.7°C 89% 1.0 mph S1.6 kmh S 5.0 mph8.0 kmh 29.66 in1004.4 mb 0.00 in0.0 mm 0.00 in0.0 mm 0.00 in0.0 mm
04:12 AM 56.3°F13.5°C 53.1°F11.7°C 89% Calm Calm 7.0 mph11.3 kmh 29.66 in1004.4 mb 0.00 in0.0 mm 0.00 in0.0 mm 0.00 in0.0 mm
04:17 AM 56.5°F13.6°C 53.3°F11.8°C 89% Calm Calm 3.0 mph4.8 kmh 29.66 in1004.4 mb 0.00 in0.0 mm 0.00 in0.0 mm 0.00 in0.0 mm
04:22 AM 56.5°F13.6°C 53.3°F11.8°C 89% Calm Calm 6.0 mph9.7 kmh 29.66 in1004.4 mb 0.00 in0.0 mm 0.00 in0.0 mm 0.00 in0.0 mm
04:27 AM 56.6°F13.7°C 53.4°F11.9°C 89% Calm Calm 6.0 mph9.7 kmh 29.66 in1004.4 mb 0.00 in0.0 mm 0.00 in0.0 mm 0.00 in0.0 mm
04:32 AM 56.5°F13.6°C 53.3°F11.8°C 89% Calm Calm 7.0 mph11.3 kmh 29.66 in1004.4 mb 0.00 in0.0 mm 0.00 in0.0 mm 0.00 in0.0 mm
04:37 AM 56.5°F13.6°C 53.3°F11.8°C 89% 4.0 mph SSW6.4 kmh SSW 4.0 mph6.4 kmh 29.66 in1004.4 mb 0.00 in0.0 mm 0.00 in0.0 mm 0.00 in0.0 mm
04:42 AM 56.6°F13.7°C 53.4°F11.9°C 89% 4.0 mph S6.4 kmh S 9.0 mph14.5 kmh 29.65 in1004.1 mb 0.00 in0.0 mm 0.00 in0.0 mm 0.00 in0.0 mm
04:47 AM 56.7°F13.7°C 53.5°F11.9°C 89% 3.0 mph S4.8 kmh S 9.0 mph14.5 kmh 29.65 in1004.1 mb 0.00 in0.0 mm 0.00 in0.0 mm 0.00 in0.0 mm
04:52 AM 56.8°F13.8°C 53.6°F12.0°C 89% 5.0 mph S8.0 kmh S 9.0 mph14.5 kmh 29.65 in1004.1 mb 0.00 in0.0 mm 0.00 in0.0 mm 0.00 in0.0 mm
04:57 AM 56.9°F13.8°C 53.7°F12.1°C 89% 1.0 mph SSW1.6 kmh SSW 11.0 mph17.7 kmh 29.65 in1004.1 mb 0.00 in0.0 mm 0.00 in0.0 mm 0.00 in0.0 mm
05:02 AM 57.0°F13.9°C 53.8°F12.1°C 89% 3.0 mph SSW4.8 kmh SSW 11.0 mph17.7 kmh 29.65 in1004.1 mb 0.00 in0.0 mm 0.00 in0.0 mm 0.00 in0.0 mm
05:07 AM 57.1°F13.9°C 53.9°F12.2°C 89% 6.0 mph SW9.7 kmh SW 13.0 mph20.9 kmh 29.65 in1004.1 mb 0.00 in0.0 mm 0.00 in0.0 mm 0.00 in0.0 mm
05:12 AM 57.1°F13.9°C 53.9°F12.2°C 89% 4.0 mph S6.4 kmh S 13.0 mph20.9 kmh 29.64 in1003.7 mb 0.00 in0.0 mm 0.00 in0.0 mm 0.00 in0.0 mm
05:17 AM 57.2°F14.0°C 54.0°F12.2°C 89% 4.0 mph S6.4 kmh S 13.0 mph20.9 kmh 29.64 in1003.7 mb 0.00 in0.0 mm 0.00 in0.0 mm 0.00 in0.0 mm
05:22 AM 57.2°F14.0°C 54.0°F12.2°C 89% Calm Calm 18.0 mph29.0 kmh 29.64 in1003.7 mb 0.00 in0.0 mm 0.00 in0.0 mm 0.00 in0.0 mm
05:27 AM 57.2°F14.0°C 54.0°F12.2°C 89% 4.0 mph S6.4 kmh S 18.0 mph29.0 kmh 29.64 in1003.7 mb 0.00 in0.0 mm 0.00 in0.0 mm 0.00 in0.0 mm
05:32 AM 57.1°F13.9°C 53.9°F12.2°C 89% 6.0 mph S9.7 kmh S 18.0 mph29.0 kmh 29.65 in1004.1 mb 0.00 in0.0 mm 0.00 in0.0 mm 0.00 in0.0 mm
05:37 AM 57.1°F13.9°C 53.9°F12.2°C 89% 2.0 mph SW3.2 kmh SW 18.0 mph29.0 kmh 29.65 in1004.1 mb 0.00 in0.0 mm 0.00 in0.0 mm 0.00 in0.0 mm
05:42 AM 57.1°F13.9°C 53.9°F12.2°C 89% Calm Calm 9.0 mph14.5 kmh 29.65 in1004.1 mb 0.00 in0.0 mm 0.00 in0.0 mm 0.00 in0.0 mm
05:47 AM 57.0°F13.9°C 53.8°F12.1°C 89% Calm Calm -- 29.64 in1003.7 mb 0.00 in0.0 mm 0.00 in0.0 mm 0.00 in0.0 mm
05:52 AM 57.0°F13.9°C 53.8°F12.1°C 89% 4.0 mph SSW6.4 kmh SSW 4.0 mph6.4 kmh 29.64 in1003.7 mb 0.00 in0.0 mm 0.00 in0.0 mm 0.00 in0.0 mm
05:57 AM 57.0°F13.9°C 53.8°F12.1°C 89% Calm Calm -- 29.64 in1003.7 mb 0.00 in0.0 mm 0.00 in0.0 mm 0.00 in0.0 mm
06:02 AM 56.9°F13.8°C 53.3°F11.8°C 88% Calm Calm 5.0 mph8.0 kmh 29.64 in1003.7 mb 0.00 in0.0 mm 0.00 in0.0 mm 0.00 in0.0 mm
06:07 AM 56.8°F13.8°C 53.2°F11.8°C 88% 4.0 mph SSW6.4 kmh SSW 6.0 mph9.7 kmh 29.64 in1003.7 mb 0.00 in0.0 mm 0.00 in0.0 mm 0.00 in0.0 mm
06:12 AM 56.7°F13.7°C 53.1°F11.7°C 88% Calm Calm -- 29.64 in1003.7 mb 0.00 in0.0 mm 0.00 in0.0 mm 0.00 in0.0 mm
06:17 AM 56.7°F13.7°C 53.1°F11.7°C 88% Calm Calm -- 29.64 in1003.7 mb 0.00 in0.0 mm 0.00 in0.0 mm 0.00 in0.0 mm
06:22 AM 56.6°F13.7°C 53.0°F11.7°C 88% Calm Calm -- 29.64 in1003.7 mb 0.00 in0.0 mm 0.00 in0.0 mm 0.00 in0.0 mm
06:27 AM 56.4°F13.6°C 52.9°F11.6°C 88% Calm Calm -- 29.64 in1003.7 mb 0.00 in0.0 mm 0.00 in0.0 mm 0.00 in0.0 mm
06:32 AM 56.3°F13.5°C 52.8°F11.6°C 88% Calm Calm -- 29.64 in1003.7 mb 0.00 in0.0 mm 0.00 in0.0 mm 0.00 in0.0 mm
06:37 AM 56.1°F13.4°C 52.6°F11.4°C 88% Calm Calm -- 29.63 in1003.4 mb 0.00 in0.0 mm 0.00 in0.0 mm 0.00 in0.0 mm
06:42 AM 56.0°F13.3°C 52.5°F11.4°C 88% Calm Calm -- 29.63 in1003.4 mb 0.00 in0.0 mm 0.00 in0.0 mm 0.00 in0.0 mm
06:47 AM 55.8°F13.2°C 52.3°F11.3°C 88% Calm Calm -- 29.63 in1003.4 mb 0.00 in0.0 mm 0.00 in0.0 mm 0.00 in0.0 mm
06:52 AM 55.6°F13.1°C 52.1°F11.2°C 88% Calm Calm -- 29.63 in1003.4 mb 0.00 in0.0 mm 0.00 in0.0 mm 0.00 in0.0 mm
06:57 AM 55.4°F13.0°C 51.9°F11.1°C 88% Calm Calm -- 29.63 in1003.4 mb 0.00 in0.0 mm 0.00 in0.0 mm 0.00 in0.0 mm
07:02 AM 55.3°F12.9°C 51.8°F11.0°C 88% Calm Calm -- 29.63 in1003.4 mb 0.00 in0.0 mm 0.00 in0.0 mm 0.00 in0.0 mm
07:07 AM 55.3°F12.9°C 51.8°F11.0°C 88% Calm Calm -- 29.62 in1003.0 mb 0.00 in0.0 mm 0.00 in0.0 mm 0.00 in0.0 mm
07:12 AM 55.2°F12.9°C 52.0°F11.1°C 89% Calm Calm -- 29.62 in1003.0 mb 0.00 in0.0 mm 0.00 in0.0 mm 0.00 in0.0 mm
07:17 AM 55.1°F12.8°C 51.9°F11.1°C 89% Calm Calm -- 29.62 in1003.0 mb 0.00 in0.0 mm 0.00 in0.0 mm 0.01 in0.3 mm
07:22 AM 55.0°F12.8°C 51.8°F11.0°C 89% Calm Calm -- 29.63 in1003.4 mb 0.00 in0.0 mm 0.00 in0.0 mm 0.01 in0.3 mm
07:27 AM 54.8°F12.7°C 51.6°F10.9°C 89% Calm Calm -- 29.62 in1003.0 mb 0.08 in2.0 mm 0.96 in24.4 mm 0.02 in0.5 mm
07:32 AM 54.8°F12.7°C 51.6°F10.9°C 89% Calm Calm -- 29.63 in1003.4 mb 0.20 in5.1 mm 1.44 in36.6 mm 0.03 in0.8 mm
07:37 AM 54.7°F12.6°C 51.5°F10.8°C 89% Calm Calm -- 29.62 in1003.0 mb 0.16 in4.1 mm 0.00 in0.0 mm 0.05 in1.3 mm
07:42 AM 54.6°F12.6°C 51.4°F10.8°C 89% Calm Calm 4.0 mph6.4 kmh 29.63 in1003.4 mb 0.12 in3.0 mm 0.00 in0.0 mm 0.06 in1.5 mm
07:47 AM 54.5°F12.5°C 51.3°F10.7°C 89% Calm Calm 7.0 mph11.3 kmh 29.63 in1003.4 mb 0.10 in2.5 mm 0.00 in0.0 mm 0.06 in1.5 mm
07:52 AM 54.4°F12.4°C 51.2°F10.7°C 89% Calm Calm -- 29.63 in1003.4 mb 0.05 in1.3 mm 0.00 in0.0 mm 0.06 in1.5 mm
07:57 AM 54.3°F12.4°C 51.1°F10.6°C 89% Calm Calm -- 29.62 in1003.0 mb 0.05 in1.3 mm 0.00 in0.0 mm 0.07 in1.8 mm
08:02 AM 54.2°F12.3°C 51.0°F10.6°C 89% Calm Calm 5.0 mph8.0 kmh 29.62 in1003.0 mb 0.05 in1.3 mm 0.00 in0.0 mm 0.07 in1.8 mm
08:07 AM 54.0°F12.2°C 50.8°F10.4°C 89% Calm Calm 4.0 mph6.4 kmh 29.63 in1003.4 mb 0.04 in1.0 mm 0.00 in0.0 mm 0.07 in1.8 mm
08:12 AM 53.9°F12.2°C 50.7°F10.4°C 89% Calm Calm 7.0 mph11.3 kmh 29.63 in1003.4 mb 0.00 in0.0 mm 0.00 in0.0 mm 0.07 in1.8 mm
08:17 AM 53.8°F12.1°C 50.6°F10.3°C 89% Calm Calm 7.0 mph11.3 kmh 29.62 in1003.0 mb 0.00 in0.0 mm 0.00 in0.0 mm 0.07 in1.8 mm
08:22 AM 53.6°F12.0°C 50.4°F10.2°C 89% 5.0 mph NW8.0 kmh NW 7.0 mph11.3 kmh 29.62 in1003.0 mb 0.00 in0.0 mm 0.00 in0.0 mm 0.08 in2.0 mm
08:27 AM 53.4°F11.9°C 50.2°F10.1°C 89% Calm Calm 8.0 mph12.9 kmh 29.62 in1003.0 mb 0.00 in0.0 mm 0.00 in0.0 mm 0.08 in2.0 mm
08:32 AM 53.2°F11.8°C 50.0°F10.0°C 89% 3.0 mph WNW4.8 kmh WNW 9.0 mph14.5 kmh 29.62 in1003.0 mb 0.00 in0.0 mm 0.00 in0.0 mm 0.08 in2.0 mm
08:37 AM 52.9°F11.6°C 49.7°F9.8°C 89% 7.0 mph W11.3 kmh W 9.0 mph14.5 kmh 29.62 in1003.0 mb 0.00 in0.0 mm 0.00 in0.0 mm 0.08 in2.0 mm
08:42 AM 52.5°F11.4°C 49.3°F9.6°C 89% Calm Calm 9.0 mph14.5 kmh 29.63 in1003.4 mb 0.00 in0.0 mm 0.00 in0.0 mm 0.08 in2.0 mm
08:47 AM 52.2°F11.2°C 49.0°F9.4°C 89% 3.0 mph W4.8 kmh W 9.0 mph14.5 kmh 29.63 in1003.4 mb 0.00 in0.0 mm 0.00 in0.0 mm 0.08 in2.0 mm
08:52 AM 51.8°F11.0°C 48.6°F9.2°C 89% 6.0 mph W9.7 kmh W 10.0 mph16.1 kmh 29.64 in1003.7 mb 0.00 in0.0 mm 0.00 in0.0 mm 0.09 in2.3 mm
08:57 AM 51.4°F10.8°C 48.3°F9.1°C 89% 4.0 mph W6.4 kmh W 10.0 mph16.1 kmh 29.65 in1004.1 mb 0.13 in3.3 mm 1.56 in39.6 mm 0.10 in2.5 mm
09:02 AM 51.2°F10.7°C 48.1°F8.9°C 89% 9.0 mph WNW14.5 kmh WNW 10.0 mph16.1 kmh 29.65 in1004.1 mb 0.22 in5.6 mm 0.10 in2.5 mm 0.11 in2.8 mm
09:07 AM 50.9°F10.5°C 47.8°F8.8°C 89% 4.0 mph NW6.4 kmh NW 10.0 mph16.1 kmh 29.64 in1003.7 mb 0.30 in7.6 mm 0.96 in24.4 mm 0.14 in3.6 mm
09:12 AM 50.5°F10.3°C 47.4°F8.6°C 89% 6.0 mph NW9.7 kmh NW 14.0 mph22.5 kmh 29.65 in1004.1 mb 0.12 in3.0 mm 0.00 in0.0 mm 0.15 in3.8 mm
09:17 AM 49.9°F9.9°C 46.8°F8.2°C 89% 7.0 mph NW11.3 kmh NW 16.0 mph25.7 kmh 29.66 in1004.4 mb 0.09 in2.3 mm 0.00 in0.0 mm 0.15 in3.8 mm
09:22 AM 48.2°F9.0°C 44.8°F7.1°C 88% 10.0 mph NW16.1 kmh NW 22.0 mph35.4 kmh 29.67 in1004.7 mb 0.05 in1.3 mm 0.00 in0.0 mm 0.15 in3.8 mm
09:27 AM 46.1°F7.8°C 42.4°F5.8°C 87% 9.0 mph NNE14.5 kmh NNE 22.0 mph35.4 kmh 29.68 in1005.1 mb 0.04 in1.0 mm 0.00 in0.0 mm 0.15 in3.8 mm
09:32 AM 43.6°F6.4°C 39.7°F4.3°C 86% 9.0 mph NNW14.5 kmh NNW 22.0 mph35.4 kmh 29.68 in1005.1 mb 0.00 in0.0 mm 0.00 in0.0 mm 0.16 in4.1 mm
09:37 AM 41.7°F5.4°C 37.8°F3.2°C 86% 3.0 mph NNE4.8 kmh NNE 22.0 mph35.4 kmh 29.68 in1005.1 mb 0.00 in0.0 mm 0.00 in0.0 mm 0.16 in4.1 mm
09:42 AM 40.4°F4.7°C 36.5°F2.5°C 86% 6.0 mph NNW9.7 kmh NNW 18.0 mph29.0 kmh 29.69 in1005.4 mb 0.05 in1.3 mm 0.60 in15.2 mm 0.17 in4.3 mm
09:47 AM 39.4°F4.1°C 35.6°F2.0°C 86% 8.0 mph N12.9 kmh N 18.0 mph29.0 kmh 29.70 in1005.8 mb 0.05 in1.3 mm 0.00 in0.0 mm 0.17 in4.3 mm
09:52 AM 38.6°F3.7°C 34.8°F1.6°C 86% 10.0 mph N16.1 kmh N 17.0 mph27.4 kmh 29.70 in1005.8 mb 0.07 in1.8 mm 0.24 in6.1 mm 0.18 in4.6 mm
09:57 AM 37.8°F3.2°C 34.3°F1.3°C 87% 11.0 mph NNW17.7 kmh NNW 17.0 mph27.4 kmh 29.70 in1005.8 mb 0.08 in2.0 mm 0.12 in3.0 mm 0.19 in4.8 mm
10:02 AM 37.2°F2.9°C 33.7°F0.9°C 87% 7.0 mph N11.3 kmh N 15.0 mph24.1 kmh 29.71 in1006.1 mb 0.10 in2.5 mm 0.02 in0.5 mm 0.19 in4.8 mm
10:07 AM 36.7°F2.6°C 33.2°F0.7°C 87% 8.0 mph NNE12.9 kmh NNE 19.0 mph30.6 kmh 29.72 in1006.4 mb 0.10 in2.5 mm 0.00 in0.0 mm 0.20 in5.1 mm
10:12 AM 36.3°F2.4°C 32.8°F0.4°C 87% 3.0 mph N4.8 kmh N 19.0 mph30.6 kmh 29.73 in1006.8 mb 0.06 in1.5 mm 0.00 in0.0 mm 0.20 in5.1 mm
10:17 AM 36.1°F2.3°C 32.6°F0.3°C 87% 17.0 mph NNW27.4 kmh NNW 19.0 mph30.6 kmh 29.74 in1007.1 mb 0.04 in1.0 mm 0.00 in0.0 mm 0.20 in5.1 mm
10:22 AM 35.8°F2.1°C 32.3°F0.2°C 87% 4.0 mph N6.4 kmh N 19.0 mph30.6 kmh 29.75 in1007.5 mb 0.00 in0.0 mm 0.00 in0.0 mm 0.21 in5.3 mm
10:27 AM 35.5°F1.9°C 32.0°F0.0°C 87% 7.0 mph NW11.3 kmh NW 17.0 mph27.4 kmh 29.79 in1008.8 mb 0.00 in0.0 mm 0.00 in0.0 mm 0.21 in5.3 mm
10:32 AM 35.3°F1.8°C 31.8°F-0.1°C 87% 3.0 mph NNW4.8 kmh NNW 17.0 mph27.4 kmh 29.81 in1009.5 mb 0.00 in0.0 mm 0.00 in0.0 mm 0.21 in5.3 mm
10:37 AM 35.2°F1.8°C 32.0°F0.0°C 88% 9.0 mph N14.5 kmh N 17.0 mph27.4 kmh 29.79 in1008.8 mb 0.22 in5.6 mm 2.64 in67.1 mm 0.23 in5.8 mm
10:42 AM 34.9°F1.6°C 31.7°F-0.2°C 88% 6.0 mph NNE9.7 kmh NNE 18.0 mph29.0 kmh 29.78 in1008.5 mb 0.17 in4.3 mm 0.00 in0.0 mm 0.25 in6.4 mm
10:47 AM 34.7°F1.5°C 31.5°F-0.3°C 88% 5.0 mph NNW8.0 kmh NNW 18.0 mph29.0 kmh 29.77 in1008.1 mb 0.10 in2.5 mm 0.00 in0.0 mm 0.25 in6.4 mm
10:52 AM 34.5°F1.4°C 31.3°F-0.4°C 88% 6.0 mph NNW9.7 kmh NNW 18.0 mph29.0 kmh 29.78 in1008.5 mb 0.07 in1.8 mm 0.00 in0.0 mm 0.26 in6.6 mm
10:57 AM 34.4°F1.3°C 31.2°F-0.4°C 88% 5.0 mph NNE8.0 kmh NNE 22.0 mph35.4 kmh 29.77 in1008.1 mb 0.07 in1.8 mm 0.00 in0.0 mm 0.26 in6.6 mm
11:02 AM 34.2°F1.2°C 31.0°F-0.6°C 88% 14.0 mph NNE22.5 kmh NNE 22.0 mph35.4 kmh 29.78 in1008.5 mb 0.05 in1.3 mm 0.00 in0.0 mm 0.26 in6.6 mm
11:07 AM 33.9°F1.1°C 30.8°F-0.7°C 88% 7.0 mph N11.3 kmh N 22.0 mph35.4 kmh 29.78 in1008.5 mb 0.00 in0.0 mm 0.00 in0.0 mm 0.26 in6.6 mm
11:12 AM 33.7°F0.9°C 30.6°F-0.8°C 88% 13.0 mph NE20.9 kmh NE 24.0 mph38.6 kmh 29.78 in1008.5 mb 0.00 in0.0 mm 0.00 in0.0 mm 0.26 in6.6 mm
11:17 AM 33.6°F0.9°C 30.5°F-0.8°C 88% 7.0 mph NE11.3 kmh NE 24.0 mph38.6 kmh 29.79 in1008.8 mb 0.00 in0.0 mm 0.00 in0.0 mm 0.26 in6.6 mm
11:22 AM 33.5°F0.8°C 30.4°F-0.9°C 88% 4.0 mph NNE6.4 kmh NNE 24.0 mph38.6 kmh 29.80 in1009.1 mb 0.00 in0.0 mm 0.00 in0.0 mm 0.27 in6.9 mm
11:27 AM 33.5°F0.8°C 30.4°F-0.9°C 88% 9.0 mph NNW14.5 kmh NNW 24.0 mph38.6 kmh 29.82 in1009.8 mb 0.10 in2.5 mm 1.20 in30.5 mm 0.28 in7.1 mm
11:32 AM 33.4°F0.8°C 30.3°F-0.9°C 88% 6.0 mph NW9.7 kmh NW 15.0 mph24.1 kmh 29.82 in1009.8 mb 0.26 in6.6 mm 1.92 in48.8 mm 0.30 in7.6 mm
11:37 AM 33.3°F0.7°C 30.2°F-1.0°C 88% 6.0 mph N9.7 kmh N 15.0 mph24.1 kmh 29.82 in1009.8 mb 0.45 in11.4 mm 2.28 in57.9 mm 0.34 in8.6 mm
11:42 AM 33.3°F0.7°C 30.2°F-1.0°C 88% 6.0 mph NNW9.7 kmh NNW 14.0 mph22.5 kmh 29.82 in1009.8 mb 0.26 in6.6 mm 0.00 in0.0 mm 0.36 in9.1 mm
11:47 AM 33.1°F0.6°C 30.0°F-1.1°C 88% 2.0 mph N3.2 kmh N 15.0 mph24.1 kmh 29.82 in1009.8 mb 0.19 in4.8 mm 0.00 in0.0 mm 0.38 in9.7 mm
11:52 AM 33.1°F0.6°C 30.0°F-1.1°C 88% 5.0 mph NNE8.0 kmh NNE 15.0 mph24.1 kmh 29.82 in1009.8 mb 0.21 in5.3 mm 0.24 in6.1 mm 0.40 in10.2 mm
11:57 AM 33.1°F0.6°C 30.0°F-1.1°C 88% 6.0 mph NNW9.7 kmh NNW 15.0 mph24.1 kmh 29.82 in1009.8 mb 0.14 in3.6 mm 0.00 in0.0 mm 0.41 in10.4 mm
12:02 PM 33.1°F0.6°C 30.0°F-1.1°C 88% 13.0 mph NNW20.9 kmh NNW 15.0 mph24.1 kmh 29.82 in1009.8 mb 0.16 in4.1 mm 0.02 in0.5 mm 0.42 in10.7 mm
12:07 PM 33.1°F0.6°C 30.0°F-1.1°C 88% 3.0 mph NNW4.8 kmh NNW 14.0 mph22.5 kmh 29.83 in1010.2 mb 0.19 in4.8 mm 0.36 in9.1 mm 0.44 in11.2 mm
12:12 PM 33.1°F0.6°C 30.0°F-1.1°C 88% 3.0 mph NNE4.8 kmh NNE 14.0 mph22.5 kmh 29.82 in1009.8 mb 0.13 in3.3 mm 0.00 in0.0 mm 0.45 in11.4 mm
12:17 PM 33.1°F0.6°C 30.0°F-1.1°C 88% 9.0 mph NE14.5 kmh NE 16.0 mph25.7 kmh 29.82 in1009.8 mb 0.12 in3.0 mm 0.00 in0.0 mm 0.46 in11.7 mm
12:22 PM 33.0°F0.6°C 29.9°F-1.2°C 88% 3.0 mph N4.8 kmh N 16.0 mph25.7 kmh 29.83 in1010.2 mb 0.06 in1.5 mm 0.00 in0.0 mm 0.46 in11.7 mm
12:27 PM 32.8°F0.4°C 29.7°F-1.3°C 88% 5.0 mph NNW8.0 kmh NNW 16.0 mph25.7 kmh 29.83 in1010.2 mb 0.04 in1.0 mm 0.00 in0.0 mm 0.46 in11.7 mm
12:32 PM 32.6°F0.3°C 29.5°F-1.4°C 88% 8.0 mph NE12.9 kmh NE 16.0 mph25.7 kmh 29.84 in1010.5 mb 0.00 in0.0 mm 0.00 in0.0 mm 0.46 in11.7 mm
12:37 PM 32.4°F0.2°C 29.3°F-1.5°C 88% 6.0 mph NE9.7 kmh NE 15.0 mph24.1 kmh 29.84 in1010.5 mb 0.00 in0.0 mm 0.00 in0.0 mm 0.46 in11.7 mm
12:42 PM 32.3°F0.2°C 29.2°F-1.6°C 88% 8.0 mph NE12.9 kmh NE 15.0 mph24.1 kmh 29.84 in1010.5 mb 0.00 in0.0 mm 0.00 in0.0 mm 0.46 in11.7 mm
12:47 PM 32.2°F0.1°C 29.1°F-1.6°C 88% 6.0 mph NNE9.7 kmh NNE 13.0 mph20.9 kmh 29.84 in1010.5 mb 0.00 in0.0 mm 0.00 in0.0 mm 0.46 in11.7 mm
12:52 PM 32.0°F0.0°C 28.9°F-1.7°C 88% 10.0 mph N16.1 kmh N 17.0 mph27.4 kmh 29.85 in1010.8 mb 0.00 in0.0 mm 0.00 in0.0 mm 0.47 in11.9 mm
12:57 PM 31.8°F-0.1°C 28.7°F-1.8°C 88% 7.0 mph N11.3 kmh N 17.0 mph27.4 kmh 29.85 in1010.8 mb 0.12 in3.0 mm 1.44 in36.6 mm 0.48 in12.2 mm
01:02 PM 31.7°F-0.2°C 28.6°F-1.9°C 88% 3.0 mph NNW4.8 kmh NNW 17.0 mph27.4 kmh 29.85 in1010.8 mb 0.10 in2.5 mm 0.00 in0.0 mm 0.49 in12.4 mm
01:07 PM 31.7°F-0.2°C 28.6°F-1.9°C 88% 3.0 mph N4.8 kmh N 17.0 mph27.4 kmh 29.85 in1010.8 mb 0.10 in2.5 mm 0.00 in0.0 mm 0.50 in12.7 mm
01:12 PM 31.6°F-0.2°C 28.5°F-1.9°C 88% 10.0 mph N16.1 kmh N 18.0 mph29.0 kmh 29.84 in1010.5 mb 0.09 in2.3 mm 0.00 in0.0 mm 0.51 in13.0 mm
01:17 PM 31.1°F-0.5°C 28.0°F-2.2°C 88% 9.0 mph NNE14.5 kmh NNE 19.0 mph30.6 kmh 29.84 in1010.5 mb 0.09 in2.3 mm 0.00 in0.0 mm 0.51 in13.0 mm
01:22 PM 30.9°F-0.6°C 27.8°F-2.3°C 88% 10.0 mph NW16.1 kmh NW 22.0 mph35.4 kmh 29.84 in1010.5 mb 0.09 in2.3 mm 0.00 in0.0 mm 0.52 in13.2 mm
01:27 PM 30.5°F-0.8°C 27.4°F-2.6°C 88% 15.0 mph NNW24.1 kmh NNW 26.0 mph41.8 kmh 29.84 in1010.5 mb 0.07 in1.8 mm 0.00 in0.0 mm 0.52 in13.2 mm
01:32 PM 30.3°F-0.9°C 27.2°F-2.7°C 88% 3.0 mph N4.8 kmh N 26.0 mph41.8 kmh 29.84 in1010.5 mb 0.04 in1.0 mm 0.00 in0.0 mm 0.52 in13.2 mm
01:37 PM 30.3°F-0.9°C 27.2°F-2.7°C 88% 3.0 mph N4.8 kmh N 26.0 mph41.8 kmh 29.85 in1010.8 mb 0.00 in0.0 mm 0.00 in0.0 mm 0.52 in13.2 mm
01:42 PM 30.2°F-1.0°C 27.1°F-2.7°C 88% 2.0 mph NNW3.2 kmh NNW 26.0 mph41.8 kmh 29.85 in1010.8 mb 0.00 in0.0 mm 0.00 in0.0 mm 0.52 in13.2 mm
01:47 PM 30.1°F-1.1°C 27.0°F-2.8°C 88% 3.0 mph NNW4.8 kmh NNW 19.0 mph30.6 kmh 29.86 in1011.2 mb 0.00 in0.0 mm 0.00 in0.0 mm 0.52 in13.2 mm
01:52 PM 30.1°F-1.1°C 27.0°F-2.8°C 88% 14.0 mph N22.5 kmh N 19.0 mph30.6 kmh 29.86 in1011.2 mb 0.00 in0.0 mm 0.00 in0.0 mm 0.52 in13.2 mm
01:57 PM 30.0°F-1.1°C 26.9°F-2.8°C 88% 4.0 mph N6.4 kmh N 17.0 mph27.4 kmh 29.86 in1011.2 mb 0.00 in0.0 mm 0.00 in0.0 mm 0.52 in13.2 mm
02:02 PM 29.7°F-1.3°C 26.6°F-3.0°C 88% 4.0 mph N6.4 kmh N 17.0 mph27.4 kmh 29.86 in1011.2 mb 0.00 in0.0 mm 0.00 in0.0 mm 0.52 in13.2 mm
02:07 PM 29.5°F-1.4°C 26.4°F-3.1°C 88% 2.0 mph N3.2 kmh N 17.0 mph27.4 kmh 29.86 in1011.2 mb 0.00 in0.0 mm 0.00 in0.0 mm 0.52 in13.2 mm
02:12 PM 29.1°F-1.6°C 26.0°F-3.3°C 88% 4.0 mph NNW6.4 kmh NNW 20.0 mph32.2 kmh 29.86 in1011.2 mb 0.00 in0.0 mm 0.00 in0.0 mm 0.52 in13.2 mm
02:17 PM 28.8°F-1.8°C 25.7°F-3.5°C 88% 10.0 mph N16.1 kmh N 20.0 mph32.2 kmh 29.86 in1011.2 mb 0.00 in0.0 mm 0.00 in0.0 mm 0.53 in13.5 mm
02:22 PM 28.6°F-1.9°C 25.5°F-3.6°C 88% 13.0 mph NNE20.9 kmh NNE 20.0 mph32.2 kmh 29.86 in1011.2 mb 0.00 in0.0 mm 0.00 in0.0 mm 0.53 in13.5 mm
02:27 PM 28.4°F-2.0°C 25.3°F-3.7°C 88% 5.0 mph N8.0 kmh N 20.0 mph32.2 kmh 29.85 in1010.8 mb 0.00 in0.0 mm 0.00 in0.0 mm 0.53 in13.5 mm
02:32 PM 28.3°F-2.1°C 25.2°F-3.8°C 88% 8.0 mph NNE12.9 kmh NNE 18.0 mph29.0 kmh 29.85 in1010.8 mb 0.00 in0.0 mm 0.00 in0.0 mm 0.53 in13.5 mm
02:37 PM 28.2°F-2.1°C 25.2°F-3.8°C 88% 13.0 mph NNE20.9 kmh NNE 18.0 mph29.0 kmh 29.86 in1011.2 mb 0.00 in0.0 mm 0.00 in0.0 mm 0.53 in13.5 mm
02:42 PM 27.9°F-2.3°C 24.9°F-3.9°C 88% 7.0 mph NNE11.3 kmh NNE 20.0 mph32.2 kmh 29.87 in1011.5 mb 0.00 in0.0 mm 0.00 in0.0 mm 0.53 in13.5 mm
02:47 PM 27.5°F-2.5°C 24.5°F-4.2°C 88% 14.0 mph NNE22.5 kmh NNE 23.0 mph37.0 kmh 29.86 in1011.2 mb 0.00 in0.0 mm 0.00 in0.0 mm 0.54 in13.7 mm
02:52 PM 27.2°F-2.7°C 24.2°F-4.3°C 88% 9.0 mph NNE14.5 kmh NNE 23.0 mph37.0 kmh 29.88 in1011.9 mb 0.00 in0.0 mm 0.00 in0.0 mm 0.54 in13.7 mm
02:57 PM 26.9°F-2.8°C 23.9°F-4.5°C 88% 1.0 mph N1.6 kmh N 23.0 mph37.0 kmh 29.89 in1012.2 mb 0.00 in0.0 mm 0.00 in0.0 mm 0.54 in13.7 mm
03:02 PM 26.6°F-3.0°C 23.3°F-4.8°C 87% 9.0 mph NNE14.5 kmh NNE 23.0 mph37.0 kmh 29.88 in1011.9 mb 0.00 in0.0 mm 0.00 in0.0 mm 0.54 in13.7 mm
03:07 PM 26.4°F-3.1°C 23.1°F-4.9°C 87% 15.0 mph N24.1 kmh N 20.0 mph32.2 kmh 29.88 in1011.9 mb 0.00 in0.0 mm 0.00 in0.0 mm 0.54 in13.7 mm
03:12 PM 26.1°F-3.3°C 22.8°F-5.1°C 87% 11.0 mph N17.7 kmh N 22.0 mph35.4 kmh 29.89 in1012.2 mb 0.00 in0.0 mm 0.00 in0.0 mm 0.54 in13.7 mm
03:17 PM 26.0°F-3.3°C 22.7°F-5.2°C 87% 5.0 mph 8.0 kmh 22.0 mph35.4 kmh 29.89 in1012.2 mb 0.00 in0.0 mm 0.00 in0.0 mm 0.54 in13.7 mm
03:22 PM 25.9°F-3.4°C 22.6°F-5.2°C 87% 8.0 mph NW12.9 kmh NW 22.0 mph35.4 kmh 29.89 in1012.2 mb 0.00 in0.0 mm 0.00 in0.0 mm 0.54 in13.7 mm
03:27 PM 25.9°F-3.4°C 22.6°F-5.2°C 87% 3.0 mph 4.8 kmh 22.0 mph35.4 kmh 29.89 in1012.2 mb 0.00 in0.0 mm 0.00 in0.0 mm 0.54 in13.7 mm
03:32 PM 25.7°F-3.5°C 22.4°F-5.3°C 87% 5.0 mph N8.0 kmh N 19.0 mph30.6 kmh 29.89 in1012.2 mb 0.00 in0.0 mm 0.00 in0.0 mm 0.54 in13.7 mm
03:37 PM 25.5°F-3.6°C 22.2°F-5.4°C 87% 7.0 mph NNW11.3 kmh NNW 19.0 mph30.6 kmh 29.89 in1012.2 mb 0.00 in0.0 mm 0.00 in0.0 mm 0.54 in13.7 mm
03:42 PM 25.4°F-3.7°C 22.1°F-5.5°C 87% 6.0 mph NNE9.7 kmh NNE 17.0 mph27.4 kmh 29.89 in1012.2 mb 0.00 in0.0 mm 0.00 in0.0 mm 0.55 in14.0 mm
03:47 PM 25.3°F-3.7°C 22.0°F-5.6°C 87% 13.0 mph NNE20.9 kmh NNE 22.0 mph35.4 kmh 29.90 in1012.5 mb 0.00 in0.0 mm 0.00 in0.0 mm 0.55 in14.0 mm
03:52 PM 25.0°F-3.9°C 21.7°F-5.7°C 87% 8.0 mph NNE12.9 kmh NNE 22.0 mph35.4 kmh 29.90 in1012.5 mb 0.00 in0.0 mm 0.00 in0.0 mm 0.55 in14.0 mm
03:57 PM 24.9°F-3.9°C 21.6°F-5.8°C 87% 5.0 mph N8.0 kmh N 22.0 mph35.4 kmh 29.89 in1012.2 mb 0.04 in1.0 mm 0.48 in12.2 mm 0.56 in14.2 mm
04:02 PM 25.0°F-3.9°C 22.0°F-5.6°C 88% 10.0 mph NNW16.1 kmh NNW 22.0 mph35.4 kmh 29.89 in1012.2 mb 0.04 in1.0 mm 0.00 in0.0 mm 0.56 in14.2 mm
04:07 PM 25.2°F-3.8°C 22.2°F-5.4°C 88% 3.0 mph N4.8 kmh N 20.0 mph32.2 kmh 29.89 in1012.2 mb 0.04 in1.0 mm 0.00 in0.0 mm 0.56 in14.2 mm
04:12 PM 25.0°F-3.9°C 22.0°F-5.6°C 88% 6.0 mph N9.7 kmh N 21.0 mph33.8 kmh 29.89 in1012.2 mb 0.00 in0.0 mm 0.00 in0.0 mm 0.56 in14.2 mm
04:17 PM 24.9°F-3.9°C 21.9°F-5.6°C 88% 10.0 mph NNE16.1 kmh NNE 21.0 mph33.8 kmh 29.88 in1011.9 mb 0.00 in0.0 mm 0.00 in0.0 mm 0.57 in14.5 mm
04:22 PM 24.7°F-4.1°C 21.4°F-5.9°C 87% 4.0 mph N6.4 kmh N 21.0 mph33.8 kmh 29.88 in1011.9 mb 0.00 in0.0 mm 0.00 in0.0 mm 0.57 in14.5 mm
04:27 PM 24.7°F-4.1°C 21.4°F-5.9°C 87% 13.0 mph NNW20.9 kmh NNW 21.0 mph33.8 kmh 29.89 in1012.2 mb 0.00 in0.0 mm 0.00 in0.0 mm 0.57 in14.5 mm
04:32 PM 24.6°F-4.1°C 21.3°F-5.9°C 87% 13.0 mph 20.9 kmh 20.0 mph32.2 kmh 29.90 in1012.5 mb 0.00 in0.0 mm 0.00 in0.0 mm 0.57 in14.5 mm
04:37 PM 24.5°F-4.2°C 21.5°F-5.8°C 88% 8.0 mph NNE12.9 kmh NNE 24.0 mph38.6 kmh 29.91 in1012.9 mb 0.00 in0.0 mm 0.00 in0.0 mm 0.57 in14.5 mm
04:42 PM 24.5°F-4.2°C 21.2°F-6.0°C 87% 8.0 mph NNE12.9 kmh NNE 24.0 mph38.6 kmh 29.92 in1013.2 mb 0.00 in0.0 mm 0.00 in0.0 mm 0.58 in14.7 mm
04:47 PM 24.5°F-4.2°C 21.5°F-5.8°C 88% 7.0 mph N11.3 kmh N 24.0 mph38.6 kmh 29.93 in1013.5 mb 0.00 in0.0 mm 0.00 in0.0 mm 0.58 in14.7 mm
04:52 PM 24.6°F-4.1°C 21.6°F-5.8°C 88% 7.0 mph NNE11.3 kmh NNE 24.0 mph38.6 kmh 29.92 in1013.2 mb 0.00 in0.0 mm 0.00 in0.0 mm 0.58 in14.7 mm
04:57 PM 24.6°F-4.1°C 21.6°F-5.8°C 88% 6.0 mph 9.7 kmh 17.0 mph27.4 kmh 29.92 in1013.2 mb 0.00 in0.0 mm 0.00 in0.0 mm 0.58 in14.7 mm
05:02 PM 24.6°F-4.1°C 21.6°F-5.8°C 88% 3.0 mph N4.8 kmh N 19.0 mph30.6 kmh 29.93 in1013.5 mb 0.00 in0.0 mm 0.00 in0.0 mm 0.58 in14.7 mm
05:07 PM 24.6°F-4.1°C 21.6°F-5.8°C 88% 7.0 mph NNE11.3 kmh NNE 19.0 mph30.6 kmh 29.94 in1013.9 mb 0.00 in0.0 mm 0.00 in0.0 mm 0.59 in15.0 mm
05:12 PM 24.7°F-4.1°C 21.7°F-5.7°C 88% 9.0 mph N14.5 kmh N 19.0 mph30.6 kmh 29.94 in1013.9 mb 0.00 in0.0 mm 0.00 in0.0 mm 0.59 in15.0 mm
05:17 PM 24.8°F-4.0°C 21.8°F-5.7°C 88% 10.0 mph NW16.1 kmh NW 19.0 mph30.6 kmh 29.95 in1014.2 mb 0.00 in0.0 mm 0.00 in0.0 mm 0.59 in15.0 mm
05:22 PM 24.8°F-4.0°C 21.8°F-5.7°C 88% 8.0 mph NNE12.9 kmh NNE 19.0 mph30.6 kmh 29.96 in1014.6 mb 0.00 in0.0 mm 0.00 in0.0 mm 0.59 in15.0 mm
05:27 PM 24.8°F-4.0°C 21.8°F-5.7°C 88% 9.0 mph NNE14.5 kmh NNE 19.0 mph30.6 kmh 29.96 in1014.6 mb 0.00 in0.0 mm 0.00 in0.0 mm 0.59 in15.0 mm
05:32 PM 24.8°F-4.0°C 21.8°F-5.7°C 88% 11.0 mph NNE17.7 kmh NNE 19.0 mph30.6 kmh 29.96 in1014.6 mb 0.00 in0.0 mm 0.00 in0.0 mm 0.59 in15.0 mm
05:37 PM 24.7°F-4.1°C 21.7°F-5.7°C 88% 6.0 mph NNE9.7 kmh NNE 19.0 mph30.6 kmh 29.96 in1014.6 mb 0.00 in0.0 mm 0.00 in0.0 mm 0.59 in15.0 mm
05:42 PM 24.6°F-4.1°C 21.6°F-5.8°C 88% 10.0 mph NNE16.1 kmh NNE 19.0 mph30.6 kmh 29.95 in1014.2 mb 0.00 in0.0 mm 0.00 in0.0 mm 0.59 in15.0 mm
05:47 PM 24.5°F-4.2°C 21.5°F-5.8°C 88% 5.0 mph NNE8.0 kmh NNE 21.0 mph33.8 kmh 29.95 in1014.2 mb 0.00 in0.0 mm 0.00 in0.0 mm 0.60 in15.2 mm
05:52 PM 24.3°F-4.3°C 21.3°F-5.9°C 88% 20.0 mph NNE32.2 kmh NNE 24.0 mph38.6 kmh 29.96 in1014.6 mb 0.00 in0.0 mm 0.00 in0.0 mm 0.60 in15.2 mm
05:57 PM 24.2°F-4.3°C 21.2°F-6.0°C 88% 10.0 mph NNE16.1 kmh NNE 24.0 mph38.6 kmh 29.97 in1014.9 mb 0.00 in0.0 mm 0.00 in0.0 mm 0.60 in15.2 mm
06:02 PM 24.2°F-4.3°C 21.2°F-6.0°C 88% 10.0 mph NNE16.1 kmh NNE 24.0 mph38.6 kmh 29.97 in1014.9 mb 0.00 in0.0 mm 0.00 in0.0 mm 0.60 in15.2 mm
06:07 PM 24.2°F-4.3°C 21.2°F-6.0°C 88% 7.0 mph NNE11.3 kmh NNE 24.0 mph38.6 kmh 29.96 in1014.6 mb 0.00 in0.0 mm 0.00 in0.0 mm 0.61 in15.5 mm
06:12 PM 24.3°F-4.3°C 21.3°F-5.9°C 88% 6.0 mph NNE9.7 kmh NNE 18.0 mph29.0 kmh 29.95 in1014.2 mb 0.00 in0.0 mm 0.00 in0.0 mm 0.61 in15.5 mm
06:17 PM 24.3°F-4.3°C 21.3°F-5.9°C 88% 14.0 mph NNE22.5 kmh NNE 18.0 mph29.0 kmh 29.96 in1014.6 mb 0.10 in2.5 mm 1.20 in30.5 mm 0.62 in15.7 mm
06:22 PM 24.3°F-4.3°C 21.3°F-5.9°C 88% 16.0 mph NNE25.7 kmh NNE 21.0 mph33.8 kmh 29.97 in1014.9 mb 0.07 in1.8 mm 0.00 in0.0 mm 0.63 in16.0 mm
06:27 PM 24.3°F-4.3°C 21.3°F-5.9°C 88% 3.0 mph NNE4.8 kmh NNE 21.0 mph33.8 kmh 29.96 in1014.6 mb 0.07 in1.8 mm 0.00 in0.0 mm 0.63 in16.0 mm
06:32 PM 24.3°F-4.3°C 21.3°F-5.9°C 88% 15.0 mph N24.1 kmh N 24.0 mph38.6 kmh 29.95 in1014.2 mb 0.09 in2.3 mm 0.24 in6.1 mm 0.64 in16.3 mm
06:37 PM 24.2°F-4.3°C 21.2°F-6.0°C 88% 11.0 mph NNE17.7 kmh NNE 24.0 mph38.6 kmh 29.95 in1014.2 mb 0.07 in1.8 mm 0.00 in0.0 mm 0.65 in16.5 mm
06:42 PM 24.1°F-4.4°C 21.1°F-6.1°C 88% 11.0 mph NNE17.7 kmh NNE 30.0 mph48.3 kmh 29.94 in1013.9 mb 0.07 in1.8 mm 0.00 in0.0 mm 0.65 in16.5 mm
06:47 PM 23.9°F-4.5°C 20.9°F-6.2°C 88% 18.0 mph NNE29.0 kmh NNE 30.0 mph48.3 kmh 29.94 in1013.9 mb 0.06 in1.5 mm 0.00 in0.0 mm 0.66 in16.8 mm
06:52 PM 23.9°F-4.5°C 20.9°F-6.2°C 88% 8.0 mph NNE12.9 kmh NNE 30.0 mph48.3 kmh 29.95 in1014.2 mb 0.06 in1.5 mm 0.00 in0.0 mm 0.66 in16.8 mm
06:57 PM 23.9°F-4.5°C 20.9°F-6.2°C 88% 5.0 mph NNE8.0 kmh NNE 30.0 mph48.3 kmh 29.97 in1014.9 mb 0.07 in1.8 mm 0.12 in3.0 mm 0.67 in17.0 mm
07:02 PM 24.0°F-4.4°C 21.0°F-6.1°C 88% 10.0 mph NNE16.1 kmh NNE 20.0 mph32.2 kmh 29.98 in1015.2 mb 0.07 in1.8 mm 0.00 in0.0 mm 0.67 in17.0 mm
07:07 PM 23.8°F-4.6°C 20.8°F-6.2°C 88% 5.0 mph NNE8.0 kmh NNE 20.0 mph32.2 kmh 29.98 in1015.2 mb 0.05 in1.3 mm 0.00 in0.0 mm 0.67 in17.0 mm
07:12 PM 23.9°F-4.5°C 20.9°F-6.2°C 88% 10.0 mph NNW16.1 kmh NNW 22.0 mph35.4 kmh 29.97 in1014.9 mb 0.00 in0.0 mm 0.00 in0.0 mm 0.67 in17.0 mm
07:17 PM 23.8°F-4.6°C 20.8°F-6.2°C 88% 6.0 mph NE9.7 kmh NE 22.0 mph35.4 kmh 29.97 in1014.9 mb 0.00 in0.0 mm 0.00 in0.0 mm 0.68 in17.3 mm
07:22 PM 23.8°F-4.6°C 20.8°F-6.2°C 88% 12.0 mph NNE19.3 kmh NNE 22.0 mph35.4 kmh 29.97 in1014.9 mb 0.10 in2.5 mm 1.20 in30.5 mm 0.69 in17.5 mm
07:27 PM 23.8°F-4.6°C 20.8°F-6.2°C 88% 7.0 mph NNE11.3 kmh NNE 22.0 mph35.4 kmh 29.96 in1014.6 mb 0.12 in3.0 mm 0.24 in6.1 mm 0.70 in17.8 mm
07:32 PM 23.7°F-4.6°C 20.7°F-6.3°C 88% 6.0 mph NNE9.7 kmh NNE 22.0 mph35.4 kmh 29.96 in1014.6 mb 0.09 in2.3 mm 0.00 in0.0 mm 0.70 in17.8 mm
07:37 PM 23.5°F-4.7°C 20.5°F-6.4°C 88% 20.0 mph NE32.2 kmh NE 23.0 mph37.0 kmh 29.95 in1014.2 mb 0.07 in1.8 mm 0.00 in0.0 mm 0.71 in18.0 mm
07:42 PM 23.4°F-4.8°C 20.4°F-6.4°C 88% 22.0 mph NNE35.4 kmh NNE 28.0 mph45.1 kmh 29.95 in1014.2 mb 0.07 in1.8 mm 0.00 in0.0 mm 0.71 in18.0 mm
07:47 PM 23.2°F-4.9°C 20.2°F-6.6°C 88% 7.0 mph NE11.3 kmh NE 29.0 mph46.7 kmh 29.97 in1014.9 mb 0.06 in1.5 mm 0.00 in0.0 mm 0.72 in18.3 mm
07:52 PM 23.0°F-5.0°C 20.0°F-6.7°C 88% 12.0 mph 19.3 kmh 29.0 mph46.7 kmh 29.98 in1015.2 mb 0.06 in1.5 mm 0.00 in0.0 mm 0.72 in18.3 mm
07:57 PM 22.9°F-5.1°C 19.9°F-6.7°C 88% 10.0 mph N16.1 kmh N 29.0 mph46.7 kmh 30.00 in1015.9 mb 0.06 in1.5 mm 0.00 in0.0 mm 0.73 in18.5 mm
08:02 PM 22.9°F-5.1°C 19.9°F-6.7°C 88% 10.0 mph N16.1 kmh N 29.0 mph46.7 kmh 30.00 in1015.9 mb 0.06 in1.5 mm 0.00 in0.0 mm 0.73 in18.5 mm
08:07 PM 22.9°F-5.1°C 19.9°F-6.7°C 88% 15.0 mph NNE24.1 kmh NNE 23.0 mph37.0 kmh 29.99 in1015.6 mb 0.06 in1.5 mm 0.00 in0.0 mm 0.74 in18.8 mm
08:12 PM 22.8°F-5.1°C 19.8°F-6.8°C 88% 6.0 mph NNE9.7 kmh NNE 23.0 mph37.0 kmh 29.98 in1015.2 mb 0.06 in1.5 mm 0.00 in0.0 mm 0.74 in18.8 mm
08:17 PM 22.8°F-5.1°C 19.8°F-6.8°C 88% 7.0 mph 11.3 kmh 22.0 mph35.4 kmh 29.98 in1015.2 mb 0.05 in1.3 mm 0.00 in0.0 mm 0.74 in18.8 mm
08:22 PM 22.7°F-5.2°C 19.7°F-6.8°C 88% 7.0 mph NNE11.3 kmh NNE 22.0 mph35.4 kmh 29.98 in1015.2 mb 0.04 in1.0 mm 0.00 in0.0 mm 0.75 in19.1 mm
08:27 PM 22.5°F-5.3°C 19.5°F-6.9°C 88% 14.0 mph NNE22.5 kmh NNE 21.0 mph33.8 kmh 29.98 in1015.2 mb 0.04 in1.0 mm 0.00 in0.0 mm 0.75 in19.1 mm
08:32 PM 22.3°F-5.4°C 19.4°F-7.0°C 88% 6.0 mph NE9.7 kmh NE 22.0 mph35.4 kmh 29.97 in1014.9 mb 0.05 in1.3 mm 0.12 in3.0 mm 0.75 in19.1 mm
08:37 PM 22.3°F-5.4°C 19.4°F-7.0°C 88% 10.0 mph NNE16.1 kmh NNE 22.0 mph35.4 kmh 29.98 in1015.2 mb 0.05 in1.3 mm 0.00 in0.0 mm 0.76 in19.3 mm
08:42 PM 22.3°F-5.4°C 19.4°F-7.0°C 88% 17.0 mph N27.4 kmh N 23.0 mph37.0 kmh 29.99 in1015.6 mb 0.05 in1.3 mm 0.00 in0.0 mm 0.76 in19.3 mm
08:47 PM 22.3°F-5.4°C 19.4°F-7.0°C 88% 9.0 mph 14.5 kmh 23.0 mph37.0 kmh 29.99 in1015.6 mb 0.04 in1.0 mm 0.00 in0.0 mm 0.76 in19.3 mm
08:52 PM 22.4°F-5.3°C 19.4°F-7.0°C 88% 22.0 mph 35.4 kmh 23.0 mph37.0 kmh 29.98 in1015.2 mb 0.00 in0.0 mm 0.00 in0.0 mm 0.76 in19.3 mm
08:57 PM 22.4°F-5.3°C 19.4°F-7.0°C 88% 7.0 mph NNE11.3 kmh NNE 23.0 mph37.0 kmh 29.98 in1015.2 mb 0.00 in0.0 mm 0.00 in0.0 mm 0.77 in19.6 mm
09:02 PM 22.3°F-5.4°C 19.4°F-7.0°C 88% 12.0 mph NE19.3 kmh NE 22.0 mph35.4 kmh 29.97 in1014.9 mb 0.00 in0.0 mm 0.00 in0.0 mm 0.77 in19.6 mm
09:07 PM 22.3°F-5.4°C 19.4°F-7.0°C 88% 12.0 mph NW19.3 kmh NW 22.0 mph35.4 kmh 29.97 in1014.9 mb 0.00 in0.0 mm 0.00 in0.0 mm 0.77 in19.6 mm
09:12 PM 22.2°F-5.4°C 19.3°F-7.1°C 88% 7.0 mph N11.3 kmh N 25.0 mph40.2 kmh 29.97 in1014.9 mb 0.00 in0.0 mm 0.00 in0.0 mm 0.78 in19.8 mm
09:17 PM 22.1°F-5.5°C 18.9°F-7.3°C 87% 12.0 mph NE19.3 kmh NE 25.0 mph40.2 kmh 29.98 in1015.2 mb 0.00 in0.0 mm 0.00 in0.0 mm 0.78 in19.8 mm
09:22 PM 22.0°F-5.6°C 18.8°F-7.3°C 87% 9.0 mph N14.5 kmh N 25.0 mph40.2 kmh 29.99 in1015.6 mb 0.00 in0.0 mm 0.00 in0.0 mm 0.78 in19.8 mm
09:27 PM 21.9°F-5.6°C 18.7°F-7.4°C 87% 19.0 mph NE30.6 kmh NE 25.0 mph40.2 kmh 30.00 in1015.9 mb 0.00 in0.0 mm 0.00 in0.0 mm 0.78 in19.8 mm
09:32 PM 21.9°F-5.6°C 18.7°F-7.4°C 87% 11.0 mph NNE17.7 kmh NNE 22.0 mph35.4 kmh 30.00 in1015.9 mb 0.00 in0.0 mm 0.00 in0.0 mm 0.78 in19.8 mm
09:37 PM 22.0°F-5.6°C 18.8°F-7.3°C 87% 26.0 mph NNE41.8 kmh NNE 26.0 mph41.8 kmh 30.00 in1015.9 mb 0.00 in0.0 mm 0.00 in0.0 mm 0.79 in20.1 mm
09:42 PM 21.9°F-5.6°C 18.7°F-7.4°C 87% 7.0 mph NE11.3 kmh NE 26.0 mph41.8 kmh 30.01 in1016.3 mb 0.00 in0.0 mm 0.00 in0.0 mm 0.79 in20.1 mm
09:47 PM 21.9°F-5.6°C 18.7°F-7.4°C 87% 8.0 mph NNW12.9 kmh NNW 26.0 mph41.8 kmh 30.01 in1016.3 mb 0.00 in0.0 mm 0.00 in0.0 mm 0.79 in20.1 mm
09:52 PM 21.8°F-5.7°C 18.9°F-7.3°C 88% 15.0 mph NE24.1 kmh NE 26.0 mph41.8 kmh 30.01 in1016.3 mb 0.04 in1.0 mm 0.48 in12.2 mm 0.80 in20.3 mm
09:57 PM 21.8°F-5.7°C 18.9°F-7.3°C 88% 7.0 mph N11.3 kmh N 26.0 mph41.8 kmh 30.02 in1016.6 mb 0.04 in1.0 mm 0.00 in0.0 mm 0.80 in20.3 mm
10:02 PM 21.9°F-5.6°C 19.0°F-7.2°C 88% 7.0 mph NE11.3 kmh NE 19.0 mph30.6 kmh 30.03 in1016.9 mb 0.04 in1.0 mm 0.00 in0.0 mm 0.80 in20.3 mm
10:07 PM 21.9°F-5.6°C 19.0°F-7.2°C 88% 9.0 mph N14.5 kmh N 19.0 mph30.6 kmh 30.02 in1016.6 mb 0.00 in0.0 mm 0.00 in0.0 mm 0.80 in20.3 mm
10:12 PM 21.9°F-5.6°C 19.0°F-7.2°C 88% 10.0 mph N16.1 kmh N 20.0 mph32.2 kmh 30.02 in1016.6 mb 0.00 in0.0 mm 0.00 in0.0 mm 0.80 in20.3 mm
10:17 PM 21.8°F-5.7°C 18.9°F-7.3°C 88% 19.0 mph N30.6 kmh N 21.0 mph33.8 kmh 30.02 in1016.6 mb 0.00 in0.0 mm 0.00 in0.0 mm 0.81 in20.6 mm
10:22 PM 21.6°F-5.8°C 18.4°F-7.6°C 87% 17.0 mph N27.4 kmh N 22.0 mph35.4 kmh 30.02 in1016.6 mb 0.00 in0.0 mm 0.00 in0.0 mm 0.81 in20.6 mm
10:27 PM 21.6°F-5.8°C 18.7°F-7.4°C 88% 17.0 mph N27.4 kmh N 24.0 mph38.6 kmh 30.01 in1016.3 mb 0.00 in0.0 mm 0.00 in0.0 mm 0.81 in20.6 mm
10:32 PM 21.5°F-5.8°C 18.3°F-7.6°C 87% 16.0 mph N25.7 kmh N 24.0 mph38.6 kmh 30.02 in1016.6 mb 0.00 in0.0 mm 0.00 in0.0 mm 0.81 in20.6 mm
10:37 PM 21.4°F-5.9°C 18.2°F-7.7°C 87% 19.0 mph N30.6 kmh N 26.0 mph41.8 kmh 30.03 in1016.9 mb 0.00 in0.0 mm 0.00 in0.0 mm 0.81 in20.6 mm
10:42 PM 21.2°F-6.0°C 18.0°F-7.8°C 87% 7.0 mph NE11.3 kmh NE 26.0 mph41.8 kmh 30.04 in1017.3 mb 0.00 in0.0 mm 0.00 in0.0 mm 0.81 in20.6 mm
10:47 PM 21.1°F-6.1°C 17.9°F-7.8°C 87% 11.0 mph N17.7 kmh N 26.0 mph41.8 kmh 30.04 in1017.3 mb 0.00 in0.0 mm 0.00 in0.0 mm 0.81 in20.6 mm
10:52 PM 21.0°F-6.1°C 17.8°F-7.9°C 87% 12.0 mph N19.3 kmh N 26.0 mph41.8 kmh 30.03 in1016.9 mb 0.00 in0.0 mm 0.00 in0.0 mm 0.82 in20.8 mm
10:57 PM 20.9°F-6.2°C 17.7°F-7.9°C 87% 9.0 mph NNE14.5 kmh NNE 22.0 mph35.4 kmh 30.04 in1017.3 mb 0.00 in0.0 mm 0.00 in0.0 mm 0.82 in20.8 mm
11:02 PM 20.8°F-6.2°C 17.6°F-8.0°C 87% 5.0 mph N8.0 kmh N 22.0 mph35.4 kmh 30.04 in1017.3 mb 0.00 in0.0 mm 0.00 in0.0 mm 0.82 in20.8 mm
11:07 PM 20.8°F-6.2°C 17.6°F-8.0°C 87% 18.0 mph NE29.0 kmh NE 18.0 mph29.0 kmh 30.05 in1017.6 mb 0.00 in0.0 mm 0.00 in0.0 mm 0.82 in20.8 mm
11:12 PM 20.7°F-6.3°C 17.5°F-8.1°C 87% 19.0 mph NE30.6 kmh NE 19.0 mph30.6 kmh 30.05 in1017.6 mb 0.00 in0.0 mm 0.00 in0.0 mm 0.82 in20.8 mm
11:17 PM 20.6°F-6.3°C 17.4°F-8.1°C 87% 12.0 mph NNE19.3 kmh NNE 24.0 mph38.6 kmh 30.06 in1017.9 mb 0.00 in0.0 mm 0.00 in0.0 mm 0.82 in20.8 mm
11:22 PM 20.6°F-6.3°C 17.4°F-8.1°C 87% 6.0 mph NE9.7 kmh NE 24.0 mph38.6 kmh 30.05 in1017.6 mb 0.00 in0.0 mm 0.00 in0.0 mm 0.82 in20.8 mm
11:27 PM 20.5°F-6.4°C 17.3°F-8.2°C 87% 10.0 mph NE16.1 kmh NE 26.0 mph41.8 kmh 30.05 in1017.6 mb 0.00 in0.0 mm 0.00 in0.0 mm 0.83 in21.1 mm
11:32 PM 20.5°F-6.4°C 17.3°F-8.2°C 87% 8.0 mph NNE12.9 kmh NNE 26.0 mph41.8 kmh 30.04 in1017.3 mb 0.00 in0.0 mm 0.00 in0.0 mm 0.83 in21.1 mm
11:37 PM 20.3°F-6.5°C 17.1°F-8.3°C 87% 11.0 mph NNE17.7 kmh NNE 26.0 mph41.8 kmh 30.05 in1017.6 mb 0.00 in0.0 mm 0.00 in0.0 mm 0.83 in21.1 mm
11:42 PM 20.3°F-6.5°C 17.1°F-8.3°C 87% 8.0 mph N12.9 kmh N 27.0 mph43.5 kmh 30.05 in1017.6 mb 0.00 in0.0 mm 0.00 in0.0 mm 0.83 in21.1 mm
11:47 PM 20.2°F-6.6°C 17.0°F-8.3°C 87% 6.0 mph NW9.7 kmh NW 27.0 mph43.5 kmh 30.04 in1017.3 mb 0.00 in0.0 mm 0.00 in0.0 mm 0.83 in21.1 mm
11:52 PM 20.2°F-6.6°C 17.0°F-8.3°C 87% 11.0 mph N17.7 kmh N 27.0 mph43.5 kmh 30.05 in1017.6 mb 0.00 in0.0 mm 0.00 in0.0 mm 0.83 in21.1 mm
11:57 PM 20.3°F-6.5°C 17.1°F-8.3°C 87% 12.0 mph NNE19.3 kmh NNE 27.0 mph43.5 kmh 30.05 in1017.6 mb 0.00 in0.0 mm 0.00 in0.0 mm 0.83 in21.1 mm